Skip Navigation LinksHome page > Tools > METAR decoder Skip Navigation Links

METAR decoder

Settings

METAR

Chicago O'Hare Intl, Chicago

For information only: do not use for flight planning or navigation.
Latest weather
Observation time Friday, October 24, 2014 3:51 PM CDT
Local time Friday, October 24, 2014 4:17 PM CDT
Flight conditions Visual Meteorological Conditions
Winds
Wind direction West (260°)
Wind speed 8 mph
Visibility 10 mi.
Sky condition
Ceiling 25,000 ft. broken clouds
Cloud layer few clouds 19,000 ft.
Cloud layer broken clouds 25,000 ft.
Temperature 66°F
Dewpoint 46°F
Altimeter 29.96 in.Hg
Pressure change last 3 hours0.05 in.Hg
Pressure falling more slowly
Derived measurements
Relative humidity 49%
Density altitude 1234 ft.
Sea-level pressure 29.96 in.Hg
Remarks
Automated weather observing station with precipitation discriminator.
METAR KORD 242051Z 26007KT 10SM FEW190 BKN250 19/08 A2996 RMK AO2 SLP146 T01890078 56016

InnerDrive.Weather 4.0.5399.0 Release CLR 4.0.30319.34014
Copyright ©2014 Inner Drive Technology. All rights reserved. Portions Copyright ©1986-2014 David Braverman.

Find weather

Site navigation


Skip Navigation Links

Place info

Page info

PayPal - The safer, easier way to pay online!

Return home.

Copyright ©2014 Inner Drive Technology. Purveyors of fine, hand-crafted computer software. Page printed 2014-10-24T21:17:38 UTC.